Terminal Aerodrome Forecast
Issued by NWS

Home | Current Version | Previous Version | Graphics & Text | Print | Product List | Glossary On
Versions: 1 2 3 4 5 6 7 8 9 10 11 12 13 14 15 16
000
FTUS43 KMPX 211100
TAFRWF
TAF
KRWF 211130Z 2112/2212 14008KT P6SM BKN050
      TEMPO 2112/2113 36005KT BKN009
     FM211800 21009KT P6SM SCT050
     FM220000 30005KT P6SM SKC
     FM220700 VRB03KT 5SM BR SCT005
     FM220900 VRB03KT 2SM BR OVC005=

USA.gov is the U.S. government's official web portal to all federal, state and local government web resources and services.